Flight Track Log - Related Links

Times and Time Zones

All times are in EDT time to prevent confusion due to time zone crossing. See the AWI3787 flight status page for this flight to view local times or setup timezone preferences in your user account.

Time Position Orientation Groundspeed Altitude Reporting Facility
EDT Latitude Longitude Course Direction KTS MPH feet Rate Location/Type
Tue 11:04:50 PM 39.8833 -75.2000 75° East 161 185 1,000  Level Philadelphia TRACON
Tue 11:05:56 PM 39.9000 -75.1167 75° East 268 308 3,500 2,667 Climbing Philadelphia TRACON
Tue 11:06:56 PM 39.9333 -75.0333 62° Northeast 283 326 6,600 2,250 Climbing Philadelphia TRACON
Tue 11:07:56 PM 39.9500 -74.9333 78° East 283 326 8,000 849 Climbing Philadelphia TRACON
Tue 11:08:42 PM 39.9667 -74.8667 72° East 285 328 8,100 57 Climbing New York TRACON
Tue 11:09:42 PM 40.0167 -74.7833 52° Northeast 293 337 8,100  Level New York TRACON
Tue 11:10:42 PM 40.0833 -74.7000 44° Northeast 296 341 8,100  Level New York TRACON
Tue 11:11:42 PM 40.1333 -74.6167 52° Northeast 287 330 8,100  Level New York TRACON
Tue 11:12:42 PM 40.1833 -74.5333 52° Northeast 283 326 8,100  Level New York TRACON
Tue 11:13:42 PM 40.2333 -74.4667 45° Northeast 276 318 8,100  Level New York TRACON
Tue 11:14:42 PM 40.2833 -74.4000 45° Northeast 278 320 8,100 -476 Level New York TRACON
Tue 11:15:48 PM 40.3500 -74.3167 44° Northeast 288 331 7,100 -476 Descending New York TRACON
Tue 11:16:48 PM 40.4000 -74.2333 52° Northeast 278 320 7,100  Level New York TRACON
Tue 11:17:48 PM 40.4667 -74.1667 37° Northeast 280 322 7,100 -789 Level New York TRACON
Tue 11:18:42 PM 40.5167 -74.1167 37° Northeast 271 312 5,600 -1,737 Descending New York TRACON
Tue 11:19:42 PM 40.5667 -74.0500 45° Northeast 266 306 3,800 -1,450 Descending New York TRACON
Tue 11:20:42 PM 40.6333 -74.0000 30° Northeast 236 272 2,700 -1,000 Descending New York TRACON
Tue 11:21:42 PM 40.6833 -73.9667 27° Northeast 205 236 1,800 -600 Descending New York TRACON
Tue 11:22:42 PM 40.7167 -73.9333 37° Northeast 136 157 1,500 -524 Descending New York TRACON
Tue 11:23:48 PM 40.7500 -73.9000 37° Northeast 137 158 700 -727 Descending New York TRACON
Tue 11:25:00 PM 40.7667 -73.8667 30° Northeast  Level FlightAware Approximate
Tue 11:32:00 PM 40.7772 -73.8726 30° Northeast  Level Estimated
Tue 11:33:00 PM 40.7772 -73.8726 157° South  Level Estimated

Login

Don't have an account? Register now (free) for customized features, flight alerts, and more!